JA86AE RJFM-RJFM

Flight info

Callsign JA86AE
Flight time 1h 33m
Altitude 0
Route +
Aircraft TBM9

Departure

Time 2026-05-01 12:30
Airport Miyazaki Airport (RJFM)

Arrival

Time 2026-05-01 14:03
Airport Miyazaki Airport (RJFM)
Time Latitude Longitude Altitude Speed Heading
2026-05-01 12:29 31.90653 131.46238 1492 ft 158 kts 79°
2026-05-01 12:30 31.91019 131.48730 1376 ft 162 kts 73°
2026-05-01 12:30 31.91173 131.50001 982 ft 161 kts 101°
2026-05-01 12:30 31.90557 131.50880 803 ft 136 kts 166°
2026-05-01 12:31 31.89691 131.50854 581 ft 115 kts 199°
2026-05-01 12:31 31.88992 131.50716 607 ft 84 kts 201°
2026-05-01 12:31 31.88565 131.50388 539 ft 76 kts 238°
2026-05-01 12:31 31.88224 131.49852 430 ft 83 kts 249°
2026-05-01 12:32 31.88081 131.49286 532 ft 69 kts 263°
2026-05-01 12:32 31.87951 131.48098 429 ft 82 kts 266°
2026-05-01 12:32 31.87904 131.47419 306 ft 84 kts 268°
2026-05-01 12:33 31.87843 131.46749 189 ft 79 kts 268°
2026-05-01 12:33 31.87805 131.46132 86 ft 74 kts 266°
2026-05-01 12:33 31.87763 131.45562 38 ft 64 kts 271°
2026-05-01 12:33 31.87735 131.45121 26 ft 61 kts 267°
2026-05-01 12:34 31.87683 131.44473 228 ft 85 kts 265°
2026-05-01 12:34 31.87596 131.43742 521 ft 95 kts 263°
2026-05-01 12:34 31.87555 131.42957 896 ft 97 kts 266°
2026-05-01 12:34 31.87468 131.42206 1318 ft 97 kts 269°
2026-05-01 12:35 31.87788 131.41493 1690 ft 104 kts 319°
2026-05-01 12:35 31.88623 131.41426 1672 ft 140 kts
2026-05-01 12:35 31.89482 131.41778 1645 ft 123 kts
2026-05-01 12:35 31.90195 131.42337 1440 ft 142 kts 62°
2026-05-01 12:36 31.90289 131.43501 1385 ft 150 kts 84°
2026-05-01 12:36 31.90320 131.44294 1477 ft 143 kts 82°
2026-05-01 12:36 31.90413 131.45464 1512 ft 143 kts 79°
2026-05-01 12:36 31.90534 131.46615 1611 ft 139 kts 78°
2026-05-01 12:37 31.90600 131.47749 1611 ft 144 kts 83°
2026-05-01 12:37 31.90647 131.48942 1592 ft 145 kts 80°
2026-05-01 12:37 31.90301 131.50460 1343 ft 157 kts 146°
2026-05-01 12:37 31.89659 131.50756 1288 ft 144 kts 175°
2026-05-01 12:38 31.88686 131.51014 1180 ft 143 kts 176°
2026-05-01 12:38 31.87844 131.50777 1003 ft 119 kts 229°
2026-05-01 12:38 31.87589 131.49942 721 ft 105 kts 279°
2026-05-01 12:38 31.87740 131.49217 624 ft 72 kts 285°
2026-05-01 12:39 31.87876 131.48657 568 ft 74 kts 277°
2026-05-01 12:39 31.87911 131.48067 428 ft 72 kts 271°
2026-05-01 12:39 31.87898 131.47450 330 ft 80 kts 267°
2026-05-01 12:39 31.87850 131.46767 197 ft 84 kts 269°
2026-05-01 12:40 31.87802 131.46117 79 ft 73 kts 266°
2026-05-01 12:40 31.87763 131.45588 27 ft 54 kts 270°
2026-05-01 12:40 31.87733 131.45124 26 ft 76 kts 266°
2026-05-01 12:40 31.87657 131.44437 300 ft 91 kts 262°
2026-05-01 12:41 31.87531 131.43645 620 ft 106 kts 260°
2026-05-01 12:41 31.87410 131.42808 1025 ft 108 kts 260°
2026-05-01 12:41 31.87691 131.41971 1185 ft 127 kts 321°
2026-05-01 12:41 31.88577 131.41992 1280 ft 133 kts 18°
2026-05-01 12:42 31.89357 131.42149 1385 ft 110 kts 354°
2026-05-01 12:42 31.90112 131.42261 1395 ft 122 kts 19°
2026-05-01 12:42 31.90568 131.43161 1258 ft 144 kts 82°
2026-05-01 12:42 31.90672 131.44335 1187 ft 140 kts 80°
2026-05-01 12:43 31.90939 131.45377 1346 ft 125 kts 45°
2026-05-01 12:43 31.91609 131.45841 1414 ft 108 kts 352°
2026-05-01 12:43 31.92253 131.45500 1420 ft 109 kts 305°
2026-05-01 12:43 31.92436 131.44639 1523 ft 114 kts 263°
2026-05-01 12:44 31.92003 131.43827 1643 ft 126 kts 229°
2026-05-01 12:44 31.91149 131.43496 1679 ft 144 kts 178°
2026-05-01 12:44 31.90309 131.45421 1619 ft 157 kts 57°
2026-05-01 12:45 31.91735 131.45571 1640 ft 117 kts 295°
2026-05-01 12:45 31.91689 131.44644 1621 ft 120 kts 254°
2026-05-01 12:45 31.91308 131.43762 1580 ft 127 kts 228°
2026-05-01 12:46 31.90408 131.43528 1477 ft 148 kts 172°
2026-05-01 12:46 31.89660 131.44329 1439 ft 154 kts 103°
2026-05-01 12:46 31.89676 131.45574 1412 ft 143 kts 60°
2026-05-01 12:46 31.90411 131.46190 1304 ft 129 kts 354°
2026-05-01 12:47 31.91261 131.46054 1342 ft 114 kts 327°
2026-05-01 12:47 31.91686 131.45388 1439 ft 105 kts 278°
2026-05-01 12:47 31.91449 131.44583 1494 ft 113 kts 226°
2026-05-01 12:47 31.90612 131.44461 1425 ft 140 kts 163°
2026-05-01 12:48 31.90085 131.45368 1523 ft 141 kts 88°
2026-05-01 12:48 31.90138 131.46585 1230 ft 159 kts 78°
2026-05-01 12:48 31.90376 131.47795 1258 ft 148 kts 66°
2026-05-01 12:48 31.91083 131.48536 980 ft 141 kts 356°
2026-05-01 12:49 31.91829 131.48124 1070 ft 110 kts 292°
2026-05-01 12:49 31.91637 131.47343 1117 ft 119 kts 217°
2026-05-01 12:49 31.90768 131.47245 1209 ft 127 kts 179°
2026-05-01 12:49 31.90094 131.47943 1306 ft 137 kts 103°
2026-05-01 12:50 31.90061 131.49023 1511 ft 129 kts 81°
2026-05-01 12:50 31.90439 131.49829 1810 ft 108 kts 19°
2026-05-01 12:50 31.91137 131.49861 1807 ft 98 kts 317°
2026-05-01 12:50 31.91288 131.49100 1640 ft 113 kts 256°
2026-05-01 12:51 31.90598 131.48580 1556 ft 134 kts 179°
2026-05-01 12:51 31.89892 131.49300 1462 ft 151 kts 110°
2026-05-01 12:51 31.90169 131.51665 1296 ft 136 kts 67°
2026-05-01 12:52 31.90403 131.52774 1166 ft 140 kts 77°
2026-05-01 12:52 31.89636 131.54540 872 ft 116 kts 189°
2026-05-01 12:52 31.88900 131.54487 820 ft 109 kts 188°
2026-05-01 12:53 31.87602 131.53707 889 ft 105 kts 244°
2026-05-01 12:53 31.87618 131.52899 912 ft 106 kts 281°
2026-05-01 12:53 31.87787 131.51964 893 ft 129 kts 282°
2026-05-01 12:54 31.87972 131.50856 820 ft 142 kts 275°
2026-05-01 12:54 31.87985 131.48709 557 ft 96 kts 266°
2026-05-01 12:54 31.87940 131.48036 438 ft 80 kts 264°
2026-05-01 12:55 31.87847 131.46749 198 ft 80 kts 266°
2026-05-01 12:55 31.87802 131.46134 81 ft 69 kts 268°
2026-05-01 12:55 31.87767 131.45629 27 ft 52 kts 270°
2026-05-01 12:56 31.87739 131.45209 27 ft 64 kts 265°
2026-05-01 12:56 31.87690 131.44595 202 ft 76 kts 263°
2026-05-01 12:56 31.87533 131.43963 387 ft 85 kts 250°
2026-05-01 12:56 31.87380 131.43268 628 ft 88 kts 259°
2026-05-01 12:57 31.87302 131.42541 920 ft 90 kts 262°
2026-05-01 12:57 31.88493 131.41871 1221 ft 130 kts 349°
2026-05-01 12:57 31.89363 131.41880 1526 ft 130 kts
2026-05-01 12:58 31.90082 131.42633 1497 ft 155 kts 66°
2026-05-01 12:58 31.90227 131.43897 1468 ft 154 kts 80°
2026-05-01 12:58 31.90347 131.45142 1388 ft 157 kts 79°
2026-05-01 12:59 31.90537 131.47538 1530 ft 152 kts 79°
2026-05-01 12:59 31.90680 131.48816 1328 ft 164 kts 78°
2026-05-01 12:59 31.91460 131.50935 1518 ft 133 kts 20°
2026-05-01 13:00 31.92922 131.50356 1617 ft 112 kts 292°
2026-05-01 13:00 31.92969 131.49476 1828 ft 110 kts 254°
2026-05-01 13:01 31.91358 131.49411 1758 ft 167 kts 130°
2026-05-01 13:01 31.91082 131.50639 1822 ft 150 kts 76°
2026-05-01 13:01 31.92399 131.52062 1638 ft 126 kts 348°
2026-05-01 13:02 31.93124 131.51622 1588 ft 117 kts 306°
2026-05-01 13:07 31.87823 131.46442 118 ft 69 kts 267°
2026-05-01 13:07 31.87786 131.45904 47 ft 63 kts 269°
2026-05-01 13:07 31.87760 131.45448 26 ft 51 kts 266°
2026-05-01 13:08 31.87706 131.44884 119 ft 82 kts 263°
2026-05-01 13:08 31.87580 131.44194 382 ft 91 kts 260°
2026-05-01 13:08 31.87492 131.43455 733 ft 91 kts 263°
2026-05-01 13:08 31.87651 131.42725 1057 ft 105 kts 306°
2026-05-01 13:09 31.88380 131.42369 1363 ft 125 kts 342°
2026-05-01 13:09 31.89269 131.42260 1579 ft 132 kts 351°
2026-05-01 13:09 31.90185 131.42524 1589 ft 155 kts 32°
2026-05-01 13:09 31.90608 131.43698 1596 ft 166 kts 83°
2026-05-01 13:10 31.90761 131.45066 1529 ft 167 kts 77°
2026-05-01 13:10 31.90869 131.46428 1520 ft 168 kts 83°
2026-05-01 13:10 31.90941 131.47771 1651 ft 161 kts 81°
2026-05-01 13:10 31.91093 131.49059 1704 ft 164 kts 75°
2026-05-01 13:11 31.91514 131.50265 1703 ft 151 kts 45°
2026-05-01 13:11 31.92283 131.50941 1648 ft 134 kts
2026-05-01 13:11 31.93070 131.50682 1531 ft 115 kts 306°
2026-05-01 13:11 31.93137 131.49813 1443 ft 115 kts 245°
2026-05-01 13:12 31.92437 131.49179 1387 ft 140 kts 205°
2026-05-01 13:12 31.91476 131.49432 1482 ft 155 kts 139°
2026-05-01 13:12 31.91046 131.50559 1615 ft 151 kts 92°
2026-05-01 13:12 31.91395 131.51690 1515 ft 152 kts 34°
2026-05-01 13:13 31.92344 131.51890 1492 ft 138 kts 333°
2026-05-01 13:13 31.92935 131.51082 1490 ft 132 kts 290°
2026-05-01 13:13 31.92950 131.50042 1448 ft 130 kts 253°
2026-05-01 13:13 31.92232 131.49369 1361 ft 146 kts 197°
2026-05-01 13:14 31.91279 131.49739 1435 ft 151 kts 135°
2026-05-01 13:14 31.90992 131.50914 1483 ft 151 kts 70°
2026-05-01 13:14 31.91624 131.51766 1563 ft 131 kts
2026-05-01 13:14 31.92374 131.51445 1657 ft 119 kts 300°
2026-05-01 13:15 31.92514 131.50446 1495 ft 131 kts 271°
2026-05-01 13:15 31.92159 131.49487 1472 ft 137 kts 227°
2026-05-01 13:15 31.91185 131.49324 1341 ft 162 kts 168°
2026-05-01 13:15 31.90416 131.50159 1540 ft 154 kts 108°
2026-05-01 13:16 31.90593 131.51309 1612 ft 141 kts 41°
2026-05-01 13:16 31.91407 131.51636 1604 ft 127 kts 339°
2026-05-01 13:16 31.92056 131.50998 1597 ft 125 kts 290°
2026-05-01 13:17 31.90491 131.50045 1579 ft 152 kts 120°
2026-05-01 13:17 31.90402 131.51155 1616 ft 134 kts 66°
2026-05-01 13:18 31.91565 131.51393 1510 ft 112 kts 294°
2026-05-01 13:18 31.91468 131.50484 1434 ft 122 kts 249°
2026-05-01 13:18 31.90787 131.49868 1346 ft 134 kts 199°
2026-05-01 13:18 31.89834 131.49800 1182 ft 129 kts 197°
2026-05-01 13:19 31.89092 131.49483 1003 ft 92 kts 222°
2026-05-01 13:19 31.88614 131.49103 709 ft 82 kts 224°
2026-05-01 13:19 31.88008 131.48081 372 ft 73 kts 257°
2026-05-01 13:20 31.87921 131.47496 307 ft 77 kts 263°
2026-05-01 13:20 31.87863 131.46869 234 ft 75 kts 264°
2026-05-01 13:20 31.87819 131.46265 105 ft 73 kts 264°
2026-05-01 13:21 31.87740 131.45220 26 ft 64 kts 265°
2026-05-01 13:21 31.87661 131.44572 243 ft 86 kts 260°
2026-05-01 13:21 31.87517 131.43879 597 ft 84 kts 258°
2026-05-01 13:21 31.87396 131.43207 948 ft 85 kts 257°
2026-05-01 13:22 31.87387 131.42471 1263 ft 102 kts 293°
2026-05-01 13:22 31.88045 131.42018 1490 ft 133 kts 350°
2026-05-01 13:22 31.88980 131.42022 1705 ft 133 kts 349°
2026-05-01 13:22 31.89922 131.42044 1760 ft 141 kts
2026-05-01 13:23 31.90734 131.42841 1637 ft 168 kts 58°
2026-05-01 13:23 31.90934 131.44168 1594 ft 156 kts 82°
2026-05-01 13:23 31.91003 131.44993 1558 ft 151 kts 82°
2026-05-01 13:23 31.91538 131.46330 1508 ft 132 kts 20°
2026-05-01 13:24 31.92387 131.46330 1341 ft 121 kts 324°
2026-05-01 13:24 31.92839 131.45619 1288 ft 111 kts 277°
2026-05-01 13:24 31.92705 131.45039 1294 ft 114 kts 233°
2026-05-01 13:25 31.90955 131.45021 1149 ft 139 kts 188°
2026-05-01 13:25 31.90288 131.45648 1436 ft 133 kts 103°
2026-05-01 13:25 31.90514 131.46635 1499 ft 125 kts 33°
2026-05-01 13:25 31.91262 131.46760 1487 ft 123 kts 327°
2026-05-01 13:26 31.91637 131.45924 1596 ft 126 kts 262°
2026-05-01 13:26 31.90910 131.45413 1819 ft 152 kts 176°
2026-05-01 13:26 31.90076 131.46264 1762 ft 169 kts 108°
2026-05-01 13:26 31.90175 131.47532 1548 ft 148 kts 72°
2026-05-01 13:27 31.90297 131.48673 1415 ft 140 kts 81°
2026-05-01 13:27 31.90395 131.49817 1468 ft 137 kts 73°
2026-05-01 13:27 31.91712 131.50586 1611 ft 109 kts 317°
2026-05-01 13:28 31.92006 131.49064 1724 ft 117 kts 235°
2026-05-01 13:28 31.91148 131.48831 1684 ft 140 kts 167°
2026-05-01 13:29 31.90474 131.50886 1448 ft 141 kts 81°
2026-05-01 13:29 31.91742 131.51648 1327 ft 113 kts 310°
2026-05-01 13:30 31.90369 131.50279 1559 ft 148 kts 109°
2026-05-01 13:31 31.91229 131.51782 1714 ft 120 kts 341°
2026-05-01 13:31 31.92775 131.49866 1773 ft 121 kts 269°
2026-05-01 13:32 31.91347 131.49112 1532 ft 162 kts 147°
2026-05-01 13:33 31.90753 131.52651 1199 ft 130 kts 129°
2026-05-01 13:33 31.89395 131.52894 924 ft 91 kts 211°
2026-05-01 13:34 31.88559 131.52032 923 ft 79 kts 249°
2026-05-01 13:34 31.88242 131.50719 982 ft 83 kts 256°
2026-05-01 13:35 31.88075 131.49295 655 ft 90 kts 264°
2026-05-01 13:35 31.88012 131.48578 520 ft 86 kts 266°
2026-05-01 13:35 31.87900 131.47233 312 ft 81 kts 265°
2026-05-01 13:36 31.87852 131.46598 166 ft 73 kts 264°
2026-05-01 13:36 31.87795 131.45995 71 ft 73 kts 266°
2026-05-01 13:36 31.87718 131.44944 30 ft 77 kts 263°
2026-05-01 13:37 31.87670 131.44216 156 ft 98 kts 266°
2026-05-01 13:37 31.87652 131.43359 419 ft 105 kts 266°
2026-05-01 13:37 31.87597 131.42572 733 ft 93 kts 264°
2026-05-01 13:37 31.87506 131.41796 1069 ft 95 kts 258°
2026-05-01 13:38 31.88011 131.40268 1372 ft 144 kts 338°
2026-05-01 13:38 31.88995 131.40223 1464 ft 133 kts 352°
2026-05-01 13:38 31.89863 131.40203 1592 ft 116 kts 337°
2026-05-01 13:39 31.90337 131.39603 1764 ft 102 kts 282°
2026-05-01 13:39 31.90201 131.38791 1872 ft 110 kts 237°
2026-05-01 13:39 31.89359 131.38561 1719 ft 146 kts 162°
2026-05-01 13:39 31.88771 131.39521 1654 ft 158 kts 94°
2026-05-01 13:40 31.89154 131.40624 1687 ft 142 kts 33°
2026-05-01 13:40 31.90017 131.40903 1720 ft 128 kts 352°
2026-05-01 13:40 31.90879 131.40841 1836 ft 122 kts 346°
2026-05-01 13:40 31.91675 131.40645 1928 ft 116 kts 325°
2026-05-01 13:41 31.92156 131.39862 1733 ft 127 kts 285°
2026-05-01 13:41 31.92131 131.38866 1824 ft 122 kts 250°
2026-05-01 13:41 31.91373 131.38299 1675 ft 150 kts 186°
2026-05-01 13:41 31.90488 131.38881 1593 ft 151 kts 126°
2026-05-01 13:42 31.90345 131.40026 1495 ft 146 kts 74°
2026-05-01 13:42 31.90731 131.41068 1365 ft 135 kts 30°
2026-05-01 13:42 31.91533 131.41253 1305 ft 113 kts 325°
2026-05-01 13:42 31.91956 131.40570 1242 ft 108 kts 279°
2026-05-01 13:43 31.91762 131.39774 1264 ft 112 kts 225°
2026-05-01 13:43 31.90953 131.39779 1315 ft 136 kts 153°
2026-05-01 13:43 31.90537 131.40854 1224 ft 161 kts 91°
2026-05-01 13:43 31.90649 131.42168 1240 ft 160 kts 63°
2026-05-01 13:44 31.91397 131.43001 1345 ft 140 kts
2026-05-01 13:44 31.92263 131.42831 1444 ft 119 kts 310°
2026-05-01 13:44 31.92538 131.41941 1464 ft 120 kts 278°
2026-05-01 13:44 31.92349 131.40985 1454 ft 123 kts 252°
2026-05-01 13:45 31.91808 131.40268 1670 ft 128 kts 201°
2026-05-01 13:45 31.90945 131.40666 1748 ft 151 kts 134°
2026-05-01 13:45 31.90614 131.41832 1755 ft 153 kts 76°
2026-05-01 13:45 31.91216 131.42737 1662 ft 137 kts 11°
2026-05-01 13:46 31.92074 131.42552 1554 ft 124 kts 320°
2026-05-01 13:46 31.92657 131.41904 1668 ft 110 kts 304°
2026-05-01 13:46 31.92979 131.41087 1702 ft 107 kts 277°
2026-05-01 13:46 31.92588 131.40301 1620 ft 134 kts 215°
2026-05-01 13:47 31.91618 131.40347 1561 ft 155 kts 161°
2026-05-01 13:47 31.90722 131.41079 1505 ft 157 kts 126°
2026-05-01 13:47 31.90570 131.42291 1483 ft 150 kts 61°
2026-05-01 13:47 31.91300 131.42959 1474 ft 131 kts
2026-05-01 13:48 31.92139 131.42797 1467 ft 122 kts 329°
2026-05-01 13:48 31.92716 131.42204 1595 ft 108 kts 297°
2026-05-01 13:48 31.92843 131.41349 1656 ft 109 kts 262°
2026-05-01 13:48 31.92346 131.40647 1720 ft 124 kts 209°
2026-05-01 13:49 31.91440 131.40727 1694 ft 147 kts 157°
2026-05-01 13:49 31.90830 131.41739 1555 ft 159 kts 97°
2026-05-01 13:49 31.90848 131.42988 1578 ft 152 kts 81°
2026-05-01 13:49 31.90955 131.44221 1563 ft 152 kts 82°
2026-05-01 13:50 31.91046 131.45464 1563 ft 153 kts 82°
2026-05-01 13:50 31.91157 131.46728 1542 ft 155 kts 81°
2026-05-01 13:50 31.91239 131.47997 1540 ft 153 kts 81°
2026-05-01 13:50 31.91356 131.49221 1600 ft 148 kts 78°
2026-05-01 13:51 31.91343 131.50417 1611 ft 147 kts 108°
2026-05-01 13:51 31.90710 131.51223 1571 ft 123 kts 165°
2026-05-01 13:51 31.89900 131.51423 1258 ft 122 kts 177°
2026-05-01 13:51 31.89145 131.51364 1193 ft 94 kts 207°
2026-05-01 13:52 31.88611 131.50974 1031 ft 87 kts 241°
2026-05-01 13:52 31.88319 131.50357 796 ft 87 kts 253°
2026-05-01 13:52 31.88184 131.49678 673 ft 82 kts 259°
2026-05-01 13:52 31.88096 131.49019 576 ft 79 kts 264°
2026-05-01 13:53 31.87989 131.48390 457 ft 78 kts 259°
2026-05-01 13:53 31.87871 131.47129 252 ft 77 kts 266°
2026-05-01 13:53 31.87833 131.46508 154 ft 76 kts 267°
2026-05-01 13:54 31.87788 131.45902 55 ft 74 kts 263°
2026-05-01 13:54 31.87750 131.45363 26 ft 55 kts 267°
2026-05-01 13:54 31.87715 131.44876 26 ft 72 kts 265°
2026-05-01 13:54 31.87649 131.44231 153 ft 87 kts 259°
2026-05-01 13:55 31.87522 131.43501 446 ft 95 kts 262°
2026-05-01 13:55 31.87402 131.42726 769 ft 98 kts 261°
2026-05-01 13:55 31.87281 131.41892 1098 ft 109 kts 265°
2026-05-01 13:55 31.87596 131.41046 1278 ft 139 kts 317°
2026-05-01 13:56 31.88511 131.40730 1487 ft 133 kts 349°
2026-05-01 13:56 31.89418 131.40729 1575 ft 132 kts
2026-05-01 13:56 31.90242 131.41257 1670 ft 144 kts 43°
2026-05-01 13:56 31.90503 131.42435 1630 ft 160 kts 82°
2026-05-01 13:57 31.90577 131.43721 1524 ft 155 kts 84°
2026-05-01 13:57 31.90607 131.44563 1451 ft 155 kts 85°
2026-05-01 13:57 31.90725 131.46253 1374 ft 154 kts 79°
2026-05-01 13:57 31.90823 131.47510 1287 ft 154 kts 84°
2026-05-01 13:58 31.90947 131.48703 1447 ft 135 kts 77°
2026-05-01 13:58 31.91079 131.49800 1487 ft 142 kts 77°
2026-05-01 13:58 31.91592 131.50760 1448 ft 140 kts 23°
2026-05-01 13:58 31.92465 131.50850 1532 ft 123 kts 336°
2026-05-01 13:59 31.93091 131.50239 1612 ft 117 kts 289°
2026-05-01 13:59 31.92858 131.49346 1579 ft 134 kts 225°
2026-05-01 13:59 31.91912 131.49103 1466 ft 151 kts 169°
2026-05-01 13:59 31.91202 131.49901 1535 ft 143 kts 106°
2026-05-01 14:00 31.91215 131.51123 1315 ft 157 kts 79°
2026-05-01 14:00 31.91284 131.52314 1409 ft 151 kts 105°
2026-05-01 14:00 31.90605 131.53192 1126 ft 142 kts 164°
2026-05-01 14:00 31.89696 131.53118 822 ft 125 kts 208°
2026-05-01 14:01 31.88922 131.52679 651 ft 131 kts 214°
2026-05-01 14:01 31.88233 131.52056 754 ft 117 kts 243°
2026-05-01 14:01 31.88115 131.51171 786 ft 106 kts 272°
2026-05-01 14:01 31.88103 131.50339 872 ft 103 kts 269°
2026-05-01 14:02 31.88059 131.49493 740 ft 96 kts 265°
2026-05-01 14:02 31.87982 131.48684 544 ft 104 kts 265°
2026-05-01 14:02 31.87931 131.47944 393 ft 73 kts 266°
2026-05-01 14:02 31.87894 131.47362 294 ft 73 kts 265°
2026-05-01 14:03 31.87850 131.46748 196 ft 75 kts 266°
2026-05-01 14:03 31.87805 131.46146 68 ft 72 kts 265°
2026-05-01 14:03 31.87766 131.45599 27 ft 57 kts 264°
2026-05-01 14:03 31.87742 131.45256 26 ft 28 kts 267°
2026-05-01 14:04 31.87723 131.45101 30 ft 12 kts 228°
2026-05-01 14:04 31.87641 131.45079 28 ft 13 kts 175°
2026-05-01 14:04 31.87561 131.45042 30 ft 15 kts 248°
2026-05-01 14:04 31.87552 131.44959 30 ft 16 kts 264°
2026-05-01 14:05 31.87538 131.44762 29 ft 20 kts 265°
2026-05-01 14:05 31.87525 131.44594 29 ft 21 kts 265°
2026-05-01 14:05 31.87514 131.44420 29 ft 22 kts 266°
2026-05-01 14:05 31.87502 131.44238 29 ft 23 kts 265°
2026-05-01 14:06 31.87489 131.44052 29 ft 23 kts 265°
2026-05-01 14:06 31.87476 131.43867 29 ft 23 kts 265°
2026-05-01 14:06 31.87447 131.43747 29 ft 11 kts 184°
2026-05-01 14:06 31.87408 131.43718 29 ft 0 kts 224°